Time;durP1;ratioP1;P1;durP2;ratioP2;P2;SDS_P1;SDS_P2;PMS_P1;PMS_P2;Temp;Humidity;BMP_temperature;BMP_pressure;BME280_temperature;BME280_humidity;BME280_pressure;Samples;Min_cycle;Max_cycle;Signal;HPM_P1;HPM_P2
2022/06/29 00:01:24;;;;;;;20.17;16.75;;;;;;;18.34;100.00;99050.48;2077611;84;21104;-89
2022/06/29 00:04:25;;;;;;;17.62;15.98;;;;;;;18.37;100.00;99060.12;2075634;83;21075;-90
2022/06/29 00:07:26;;;;;;;20.27;18.12;;;;;;;18.45;100.00;99064.31;2066430;83;21024;-90
2022/06/29 00:10:26;;;;;;;19.75;17.77;;;;;;;18.51;100.00;99067.94;2066970;84;21119;-89
2022/06/29 00:13:27;;;;;;;19.52;17.50;;;;;;;18.52;100.00;99066.38;2073389;83;21012;-89
2022/06/29 00:16:28;;;;;;;22.17;18.15;;;;;;;18.53;100.00;99056.06;2062533;84;21059;-90
2022/06/29 00:19:28;;;;;;;18.25;16.40;;;;;;;18.57;100.00;99056.45;2059543;84;21067;-88
2022/06/29 00:22:29;;;;;;;17.55;15.85;;;;;;;18.61;100.00;99055.77;2070843;83;21059;-89
2022/06/29 00:25:30;;;;;;;18.75;17.02;;;;;;;18.64;100.00;99052.66;2070755;84;21052;-90
2022/06/29 00:28:30;;;;;;;20.08;18.00;;;;;;;18.68;100.00;99051.74;2072156;83;21070;-89
2022/06/29 00:31:31;;;;;;;21.05;19.02;;;;;;;18.71;100.00;99048.63;2079020;83;21101;-89
2022/06/29 00:34:32;;;;;;;18.65;16.60;;;;;;;18.77;100.00;99050.40;2064391;83;21567;-89
2022/06/29 00:37:32;;;;;;;19.55;17.67;;;;;;;18.83;100.00;99039.39;2074181;83;21587;-91
2022/06/29 00:40:33;;;;;;;22.02;19.82;;;;;;;18.87;100.00;99033.95;2073316;83;20991;-89
2022/06/29 00:43:33;;;;;;;22.87;20.55;;;;;;;18.91;100.00;99030.60;2064819;83;21050;-89
2022/06/29 00:46:34;;;;;;;21.87;19.75;;;;;;;18.96;100.00;99037.90;2064834;83;21049;-89
2022/06/29 00:49:35;;;;;;;24.40;21.93;;;;;;;19.00;100.00;99046.49;2077325;84;21087;-91
2022/06/29 00:52:35;;;;;;;23.55;21.23;;;;;;;19.06;100.00;99050.63;2063115;83;22146;-89
2022/06/29 00:55:36;;;;;;;24.02;21.62;;;;;;;19.16;100.00;99045.05;2070894;84;21628;-89
2022/06/29 00:58:37;;;;;;;24.05;21.60;;;;;;;19.21;100.00;99041.73;2080198;83;21669;-90
2022/06/29 01:01:38;;;;;;;24.70;22.20;;;;;;;19.24;100.00;99042.59;2071069;84;21024;-89
2022/06/29 01:04:38;;;;;;;22.90;20.50;;;;;;;19.38;100.00;99039.20;2073893;83;21102;-89
2022/06/29 01:07:39;;;;;;;25.08;22.52;;;;;;;19.48;100.00;99044.78;2073772;83;21067;-88
2022/06/29 01:10:40;;;;;;;22.85;20.62;;;;;;;19.55;100.00;99058.74;2073968;83;21076;-90
2022/06/29 01:13:41;;;;;;;24.37;21.05;;;;;;;19.61;100.00;99060.52;2066169;83;21046;-90
2022/06/29 01:16:41;;;;;;;23.35;19.73;;;;;;;19.71;100.00;99055.97;2062444;83;21079;-89
2022/06/29 01:19:42;;;;;;;23.70;21.30;;;;;;;19.80;100.00;99046.61;2066482;84;21020;-89
2022/06/29 01:22:43;;;;;;;23.05;20.72;;;;;;;19.77;100.00;99047.09;2075259;83;21051;-89
2022/06/29 01:25:43;;;;;;;27.20;20.92;;;;;;;19.80;100.00;99030.16;2068434;84;20975;-90
2022/06/29 01:28:47;;;;;;;23.38;20.65;;;;;;;19.81;100.00;99030.44;2065926;84;21083;-90
2022/06/29 01:31:48;;;;;;;22.42;20.05;;;;;;;19.80;100.00;99028.02;2071513;83;21038;-89
2022/06/29 01:34:48;;;;;;;21.20;19.07;;;;;;;19.75;100.00;99027.39;2073780;84;21068;-89
2022/06/29 01:37:49;;;;;;;21.75;19.55;;;;;;;19.77;100.00;99021.33;2077932;84;21577;-90
2022/06/29 01:40:49;;;;;;;25.02;21.02;;;;;;;19.73;100.00;99019.34;2068065;83;21032;-90
2022/06/29 01:43:50;;;;;;;23.38;20.92;;;;;;;19.70;100.00;99012.66;2077213;83;21070;-89
2022/06/29 01:46:51;;;;;;;23.02;20.62;;;;;;;19.67;100.00;99019.77;2068578;83;21017;-89
2022/06/29 01:49:52;;;;;;;24.25;21.75;;;;;;;19.69;100.00;99024.84;2074377;83;21152;-90
2022/06/29 01:52:53;;;;;;;24.50;21.95;;;;;;;19.69;100.00;99020.34;2071690;84;21074;-89
2022/06/29 01:55:53;;;;;;;25.27;22.07;;;;;;;19.69;100.00;99011.05;2058916;84;21547;-90
2022/06/29 01:58:54;;;;;;;24.07;21.55;;;;;;;19.72;100.00;99012.42;2068643;83;21093;-89
2022/06/29 02:01:54;;;;;;;22.65;20.25;;;;;;;19.74;100.00;99011.66;2066405;83;21554;-89
2022/06/29 02:04:55;;;;;;;25.82;23.12;;;;;;;19.73;100.00;98998.09;2060959;83;21091;-90
2022/06/29 02:07:56;;;;;;;25.88;21.30;;;;;;;19.74;100.00;98999.19;2062900;84;21104;-89
2022/06/29 02:10:57;;;;;;;23.57;20.80;;;;;;;19.72;100.00;98993.83;2075155;83;21066;-88
2022/06/29 02:13:57;;;;;;;22.25;19.95;;;;;;;19.67;100.00;98987.89;2068508;84;21055;-90
2022/06/29 02:16:58;;;;;;;23.67;21.30;;;;;;;19.62;100.00;98972.35;2063017;83;21570;-89
2022/06/29 02:19:59;;;;;;;23.98;21.30;;;;;;;19.51;100.00;98977.93;2076051;83;21050;-89
2022/06/29 02:22:59;;;;;;;23.65;20.88;;;;;;;19.47;100.00;98989.52;2065381;83;21048;-89
2022/06/29 02:26:00;;;;;;;24.98;22.37;;;;;;;19.45;100.00;98986.80;2071532;83;21581;-89
2022/06/29 02:29:00;;;;;;;24.02;21.57;;;;;;;19.44;100.00;98980.69;2067289;83;21595;-89
2022/06/29 02:35:20;;;;;;;27.00;23.52;;;;;;;19.40;100.00;98985.38;2069406;83;21069;-88
2022/06/29 02:38:21;;;;;;;28.05;23.10;;;;;;;19.37;100.00;98989.80;2073999;83;20988;-87
2022/06/29 02:41:22;;;;;;;28.87;24.20;;;;;;;19.37;100.00;98984.48;2062852;83;21113;-89
2022/06/29 02:44:22;;;;;;;28.85;23.67;;;;;;;19.36;100.00;98978.89;2071325;83;21036;-88
2022/06/29 02:47:23;;;;;;;27.50;23.45;;;;;;;19.37;100.00;98982.64;2072642;83;21536;-89
2022/06/29 02:50:24;;;;;;;29.20;24.07;;;;;;;19.36;100.00;98985.01;2063416;83;21342;-90
2022/06/29 02:53:24;;;;;;;24.90;22.25;;;;;;;19.37;100.00;98975.20;2061757;83;21221;-87
2022/06/29 02:56:25;;;;;;;26.62;22.35;;;;;;;19.38;100.00;98963.53;2063582;83;21506;-89
2022/06/29 02:59:26;;;;;;;36.80;23.95;;;;;;;19.37;100.00;98960.07;2074256;83;21568;-89
2022/06/29 03:02:27;;;;;;;26.90;23.42;;;;;;;19.36;100.00;98954.48;2064649;83;21082;-89
2022/06/29 03:05:27;;;;;;;32.03;25.17;;;;;;;19.36;100.00;98955.80;2074587;83;21495;-90
2022/06/29 03:08:28;;;;;;;26.90;23.90;;;;;;;19.30;100.00;98954.09;2061424;83;21051;-89
2022/06/29 03:11:29;;;;;;;31.95;26.55;;;;;;;19.31;100.00;98947.73;2057853;84;21052;-88
2022/06/29 03:14:29;;;;;;;26.17;23.42;;;;;;;19.35;100.00;98952.86;2071366;83;21511;-89
2022/06/29 03:17:30;;;;;;;32.13;28.10;;;;;;;19.42;100.00;98950.11;2065099;84;21071;-88
2022/06/29 03:20:30;;;;;;;35.40;28.87;;;;;;;19.45;100.00;98946.98;2061875;84;21139;-90
2022/06/29 03:23:31;;;;;;;31.62;27.77;;;;;;;19.65;100.00;98948.78;2071068;84;21059;-90
2022/06/29 03:26:32;;;;;;;29.07;25.92;;;;;;;19.80;100.00;98954.44;2076948;83;21084;-88
2022/06/29 03:29:33;;;;;;;32.60;28.85;;;;;;;19.92;100.00;98950.95;2054150;84;21590;-89
2022/06/29 03:32:33;;;;;;;31.07;27.80;;;;;;;20.11;100.00;98949.22;2082250;84;21730;-90
2022/06/29 03:35:34;;;;;;;31.27;27.85;;;;;;;20.38;100.00;98948.67;2079615;83;21059;-87
2022/06/29 03:38:35;;;;;;;28.67;25.85;;;;;;;20.64;100.00;98948.13;2064556;84;21055;-89
2022/06/29 03:41:35;;;;;;;30.52;27.35;;;;;;;20.90;100.00;98945.92;2077869;84;21035;-88
2022/06/29 03:44:36;;;;;;;29.05;26.02;;;;;;;21.09;100.00;98951.81;2062972;83;21059;-90
2022/06/29 03:47:37;;;;;;;27.25;24.57;;;;;;;21.28;100.00;98940.70;2072844;83;21052;-89
2022/06/29 03:50:37;;;;;;;27.62;24.90;;;;;;;21.50;100.00;98939.97;2067927;83;21017;-89
2022/06/29 03:53:38;;;;;;;30.15;26.82;;;;;;;21.70;100.00;98942.91;2066015;83;21055;-88
2022/06/29 03:56:39;;;;;;;27.95;25.02;;;;;;;21.73;100.00;98938.94;2070973;84;21039;-90
2022/06/29 03:59:40;;;;;;;27.93;24.87;;;;;;;21.67;100.00;98938.08;2077766;84;21069;-89
2022/06/29 04:02:40;;;;;;;28.90;24.87;;;;;;;21.55;100.00;98932.03;2072319;83;21070;-89
2022/06/29 04:05:41;;;;;;;27.10;24.40;;;;;;;21.23;100.00;98931.81;2056323;83;21013;-88
2022/06/29 04:08:42;;;;;;;33.08;29.52;;;;;;;20.96;100.00;98935.13;2062916;84;21095;-89
2022/06/29 04:11:55;;;;;;;26.25;22.82;;;;;;;20.81;100.00;98936.19;2069300;83;21101;-90
2022/06/29 04:14:56;;;;;;;31.85;27.82;;;;;;;20.68;100.00;98935.17;2073260;83;21563;-85
2022/06/29 04:17:57;;;;;;;29.32;26.17;;;;;;;20.52;100.00;98932.76;2079423;83;21042;-87
2022/06/29 04:21:07;;;;;;;33.85;27.25;;;;;;;20.30;100.00;98933.09;2073513;83;21000;-87
2022/06/29 04:24:07;;;;;;;41.90;34.75;;;;;;;20.06;100.00;98926.55;2069520;83;21024;-87
2022/06/29 04:27:08;;;;;;;33.98;28.17;;;;;;;19.88;100.00;98920.06;2070995;83;21066;-88
2022/06/29 04:30:08;;;;;;;31.57;27.02;;;;;;;19.82;100.00;98920.98;2074971;83;21138;-86
2022/06/29 04:33:09;;;;;;;26.37;22.70;;;;;;;19.70;100.00;98923.67;2058533;83;21004;-87
2022/06/29 04:36:10;;;;;;;38.63;29.70;;;;;;;19.70;100.00;98926.33;2070860;83;21133;-87
2022/06/29 04:39:11;;;;;;;27.77;24.82;;;;;;;19.63;100.00;98929.62;2076176;83;21537;-87
2022/06/29 04:42:11;;;;;;;31.30;26.48;;;;;;;19.59;100.00;98929.81;2068253;84;20995;-89
2022/06/29 04:46:19;;;;;;;27.10;24.27;;;;;;;19.60;100.00;98934.08;2073203;84;21079;-88
2022/06/29 04:48:15;;;;;;;26.65;23.42;;;;;;;19.68;100.00;98939.04;2067741;83;21593;-87
2022/06/29 04:51:15;;;;;;;31.15;26.42;;;;;;;19.76;100.00;98932.05;2078364;83;21027;-88
2022/06/29 04:54:16;;;;;;;30.80;26.50;;;;;;;19.91;100.00;98937.38;2060061;83;21040;-87
2022/06/29 04:57:17;;;;;;;33.63;25.90;;;;;;;20.04;100.00;98934.47;2061716;84;21060;-89
2022/06/29 05:00:18;;;;;;;32.55;28.75;;;;;;;20.03;100.00;98936.33;2067433;84;21381;-88
2022/06/29 05:03:18;;;;;;;26.82;23.92;;;;;;;19.98;100.00;98938.87;2067733;84;21066;-89
2022/06/29 05:06:20;;;;;;;26.27;22.02;;;;;;;19.95;100.00;98950.50;2067521;84;21103;-89
2022/06/29 05:09:21;;;;;;;26.82;22.15;;;;;;;20.00;100.00;98947.41;2067798;83;21135;-89
2022/06/29 05:12:21;;;;;;;25.95;23.15;;;;;;;20.11;100.00;98945.75;2070653;83;20972;-90
2022/06/29 05:15:22;;;;;;;27.10;24.23;;;;;;;20.32;100.00;98953.62;2074419;83;21095;-89
2022/06/29 05:18:24;;;;;;;31.05;26.02;;;;;;;20.53;100.00;98955.65;2070839;83;21049;-89
2022/06/29 05:21:24;;;;;;;28.57;25.10;;;;;;;20.66;100.00;98957.20;2067445;84;21146;-90
2022/06/29 05:24:25;;;;;;;28.40;25.02;;;;;;;20.77;100.00;98954.22;2071759;83;21052;-90
2022/06/29 05:27:26;;;;;;;28.07;25.08;;;;;;;20.98;100.00;98950.84;2074546;83;21098;-88
2022/06/29 05:30:26;;;;;;;26.95;24.05;;;;;;;20.98;100.00;98950.84;2068434;84;21106;-90
2022/06/29 05:33:36;;;;;;;29.12;26.05;;;;;;;21.10;100.00;98951.56;2069701;84;21003;-90
2022/06/29 05:36:30;;;;;;;22.42;20.08;;;;;;;21.23;100.00;98947.27;2079159;83;21083;-91
2022/06/29 05:39:30;;;;;;;31.85;27.48;;;;;;;21.40;100.00;98947.29;2061934;83;21095;-90
2022/06/29 05:42:31;;;;;;;30.27;25.90;;;;;;;21.37;100.00;98943.77;2065932;84;21086;-90
2022/06/29 05:45:32;;;;;;;30.32;27.02;;;;;;;21.53;100.00;98940.80;2069331;84;21046;-92
2022/06/29 05:48:32;;;;;;;28.70;25.77;;;;;;;21.76;100.00;98936.61;2074076;83;21059;-90
2022/06/29 05:51:33;;;;;;;22.98;20.60;;;;;;;21.93;100.00;98939.72;2070055;83;21007;-91
2022/06/29 05:54:34;;;;;;;25.95;23.25;;;;;;;22.08;100.00;98953.28;2064597;83;21062;-90
2022/06/29 05:57:35;;;;;;;27.02;23.45;;;;;;;22.09;100.00;98949.03;2070776;83;21111;-91
2022/06/29 06:00:35;;;;;;;23.42;21.12;;;;;;;22.17;100.00;98946.45;2071975;83;21001;-90
2022/06/29 06:03:36;;;;;;;24.32;22.05;;;;;;;22.12;100.00;98943.19;2081381;83;21090;-90
2022/06/29 06:06:37;;;;;;;22.75;20.37;;;;;;;22.18;100.00;98943.27;2067930;83;21063;-88
2022/06/29 06:09:37;;;;;;;23.00;20.75;;;;;;;22.25;100.00;98941.22;2064336;83;21015;-90
2022/06/29 06:12:38;;;;;;;22.80;20.65;;;;;;;22.31;100.00;98945.53;2068057;83;21184;-91
2022/06/29 06:15:39;;;;;;;19.75;17.85;;;;;;;22.41;100.00;98947.81;2066626;83;21567;-91
2022/06/29 06:18:39;;;;;;;18.90;17.00;;;;;;;22.54;100.00;98951.13;2073556;84;21064;-90
2022/06/29 06:21:40;;;;;;;20.82;18.62;;;;;;;22.50;100.00;98954.84;2070287;84;21087;-91
2022/06/29 06:24:40;;;;;;;20.70;18.60;;;;;;;22.39;100.00;98954.42;2059583;83;21295;-89
2022/06/29 06:27:41;;;;;;;22.00;19.98;;;;;;;22.46;100.00;98952.38;2067509;83;21049;-89
2022/06/29 06:30:42;;;;;;;22.50;20.30;;;;;;;22.61;100.00;98948.54;2068419;83;21055;-88
2022/06/29 06:33:42;;;;;;;22.98;20.77;;;;;;;22.69;100.00;98956.09;2070709;83;21094;-88
2022/06/29 06:36:43;;;;;;;22.42;20.12;;;;;;;22.98;100.00;98952.64;2075522;84;21031;-87
2022/06/29 06:41:21;;;;;;;20.97;19.07;;;;;;;23.34;100.00;98960.13;2071571;83;21149;-88
2022/06/29 06:42:46;;;;;;;21.02;19.02;;;;;;;23.55;100.00;98943.16;2080160;83;21078;-89
2022/06/29 06:45:47;;;;;;;18.67;16.97;;;;;;;23.69;100.00;98947.03;2077781;83;21578;-89
2022/06/29 06:48:49;;;;;;;21.25;19.25;;;;;;;23.89;100.00;98950.34;2074574;84;21092;-91
2022/06/29 06:51:50;;;;;;;22.65;20.45;;;;;;;23.81;100.00;98944.95;2076034;83;21176;-90
2022/06/29 06:54:51;;;;;;;21.05;19.05;;;;;;;24.03;100.00;98948.77;2066966;84;21127;-89
2022/06/29 06:57:52;;;;;;;19.87;18.07;;;;;;;24.27;100.00;98960.38;2061128;83;21632;-90
2022/06/29 07:00:52;;;;;;;21.05;19.17;;;;;;;24.48;100.00;98959.39;2066847;84;21137;-88
2022/06/29 07:03:53;;;;;;;18.15;16.60;;;;;;;24.55;100.00;98954.59;2070504;84;21015;-89
2022/06/29 07:06:54;;;;;;;22.32;20.32;;;;;;;24.54;100.00;98961.02;2063002;83;21066;-91
2022/06/29 07:09:55;;;;;;;20.88;18.92;;;;;;;24.40;100.00;98955.89;2071117;84;21063;-91
2022/06/29 07:12:55;;;;;;;20.20;18.42;;;;;;;;;;2080661;83;20995;-91
2022/06/29 07:15:56;;;;;;;20.30;18.52;;;;;;;24.67;100.00;98950.33;2069855;84;21074;-90
2022/06/29 07:18:57;;;;;;;22.73;20.57;;;;;;;24.77;100.00;98944.98;2062463;83;21100;-90
2022/06/29 07:21:57;;;;;;;21.37;19.45;;;;;;;24.63;100.00;98936.67;2064888;83;21012;-91
2022/06/29 07:24:58;;;;;;;23.18;21.02;;;;;;;;;;2075634;84;21107;-89
2022/06/29 07:27:59;;;;;;;22.05;20.00;;;;;;;24.57;100.00;98927.56;2067460;83;21508;-91
2022/06/29 07:31:00;;;;;;;19.62;17.92;;;;;;;24.73;100.00;98929.20;2064821;84;21171;-88
2022/06/29 07:34:00;;;;;;;23.95;21.55;;;;;;;24.94;100.00;98924.64;2068236;84;21110;-87
2022/06/29 07:37:01;;;;;;;20.57;18.67;;;;;;;24.80;100.00;98919.03;2067644;83;21021;-87
2022/06/29 07:40:02;;;;;;;19.52;17.92;;;;;;;24.61;100.00;98921.96;2080575;83;22139;-87
2022/06/29 07:43:02;;;;;;;19.52;17.75;;;;;;;24.74;100.00;98918.75;2069447;84;21068;-86
2022/06/29 07:46:03;;;;;;;20.45;18.65;;;;;;;24.93;100.00;98913.13;2081058;83;20991;-87
2022/06/29 07:49:04;;;;;;;21.30;19.30;;;;;;;25.05;100.00;98912.88;2073057;83;21071;-88
2022/06/29 07:52:04;;;;;;;21.25;19.10;;;;;;;25.33;100.00;98914.72;2077491;84;21114;-85
2022/06/29 07:55:05;;;;;;;15.50;14.20;;;;;;;25.47;100.00;98915.78;2069385;84;21035;-83
2022/06/29 07:58:06;;;;;;;18.02;16.42;;;;;;;25.58;100.00;98916.55;2076074;84;21059;-86
2022/06/29 08:01:07;;;;;;;17.73;16.12;;;;;;;25.58;100.00;98920.57;2077148;83;21054;-86
2022/06/29 08:04:07;;;;;;;16.50;15.00;;;;;;;25.68;100.00;98916.52;2072254;83;21547;-88
2022/06/29 08:07:08;;;;;;;17.60;16.17;;;;;;;25.78;100.00;98913.83;2076195;83;21213;-89
2022/06/29 08:10:09;;;;;;;19.17;17.52;;;;;;;25.83;100.00;98904.98;2061969;83;21039;-89
2022/06/29 08:13:09;;;;;;;18.12;16.57;;;;;;;26.07;100.00;98907.30;2066878;84;20988;-88
2022/06/29 08:16:10;;;;;;;17.52;16.10;;;;;;;26.42;100.00;98909.52;2064894;84;21086;-88
2022/06/29 08:19:11;;;;;;;18.48;16.87;;;;;;;26.63;100.00;98917.18;2058525;84;21589;-88
2022/06/29 08:22:12;;;;;;;19.80;18.00;;;;;;;26.72;100.00;98914.70;2044289;85;21065;-87
2022/06/29 08:25:12;;;;;;;19.80;18.20;;;;;;;26.77;100.00;98917.88;2068543;84;21091;-87
2022/06/29 08:28:13;;;;;;;21.02;19.12;;;;;;;26.59;100.00;98909.95;2083200;84;20990;-89
2022/06/29 08:31:14;;;;;;;18.35;16.65;;;;;;;26.37;100.00;98903.63;2055654;83;21006;-89
2022/06/29 08:34:16;;;;;;;18.62;16.95;;;;;;;26.36;100.00;98906.05;2035893;85;21043;-87
2022/06/29 08:37:17;;;;;;;17.60;16.10;;;;;;;26.36;100.00;98899.34;2054994;85;21465;-87
2022/06/29 08:40:17;;;;;;;20.43;18.60;;;;;;;26.31;100.00;98896.14;2053088;84;21085;-89
2022/06/29 08:43:18;;;;;;;16.80;15.20;;;;;;;26.23;100.00;98893.23;2056882;85;21061;-88
2022/06/29 08:46:19;;;;;;;16.35;14.85;;;;;;;26.23;100.00;98897.26;2047764;84;21623;-88
2022/06/29 08:49:21;;;;;;;16.87;15.43;;;;;;;26.30;100.00;98905.81;2040738;85;21069;-90
2022/06/29 08:52:21;;;;;;;19.57;17.85;;;;;;;26.30;100.00;98895.08;2049075;83;21102;-90
2022/06/29 08:55:22;;;;;;;17.27;15.93;;;;;;;26.40;100.00;98895.58;2054191;84;21040;-89
2022/06/29 08:58:22;;;;;;;18.75;17.05;;;;;;;26.52;100.00;98896.86;2046050;84;21066;-89
2022/06/29 09:01:23;;;;;;;16.45;15.03;;;;;;;26.74;100.00;98896.96;2028219;86;20990;-88
2022/06/29 09:04:24;;;;;;;19.07;17.40;;;;;;;26.93;100.00;98891.16;2045568;85;21591;-88
2022/06/29 09:07:24;;;;;;;18.10;16.30;;;;;;;27.02;100.00;98892.16;2043432;84;21030;-88
2022/06/29 09:10:25;;;;;;;18.55;16.95;;;;;;;27.01;100.00;98895.13;2055388;84;21175;-90
2022/06/29 09:13:25;;;;;;;19.48;17.82;;;;;;;27.22;100.00;98901.94;2053744;84;20997;-88
2022/06/29 09:16:26;;;;;;;18.10;16.60;;;;;;;27.13;100.00;98904.44;2053123;85;21603;-89
2022/06/29 09:19:27;;;;;;;15.65;14.30;;;;;;;27.13;100.00;98895.03;2033751;86;21002;-89
2022/06/29 09:22:27;;;;;;;18.07;16.23;;;;;;;27.18;100.00;98900.91;2021621;86;20982;-88
2022/06/29 09:25:28;;;;;;;20.80;18.42;;;;;;;26.96;100.00;98892.47;2050491;84;21623;-92
2022/06/29 09:28:29;;;;;;;16.93;15.53;;;;;;;26.87;100.00;98891.73;2060297;84;21069;-89
2022/06/29 09:31:30;;;;;;;18.07;16.42;;;;;;;26.71;100.00;98901.02;2055728;84;21136;-88
2022/06/29 09:34:30;;;;;;;19.20;17.65;;;;;;;26.70;100.00;98894.56;2037328;85;21591;-93
2022/06/29 09:37:31;;;;;;;18.62;16.90;;;;;;;26.61;100.00;98899.75;2044927;84;21556;-92
2022/06/29 09:40:31;;;;;;;16.90;15.50;;;;;;;26.42;100.00;98893.42;2066912;84;21565;-91
2022/06/29 09:43:32;;;;;;;17.02;15.60;;;;;;;26.38;100.00;98890.50;2050953;84;21061;-92
2022/06/29 09:46:40;;;;;;;17.75;16.23;;;;;;;26.50;100.00;98882.09;2061811;84;21136;-90
2022/06/29 09:49:37;;;;;;;17.65;14.98;;;;;;;26.68;100.00;98873.91;2039148;84;21053;-88
2022/06/29 09:52:39;;;;;;;17.85;16.35;;;;;;;26.73;100.00;98857.22;2056019;85;21604;-88
2022/06/29 09:55:39;;;;;;;17.27;15.60;;;;;;;26.67;100.00;98855.65;2052988;84;21145;-89
2022/06/29 09:58:40;;;;;;;16.37;15.03;;;;;;;26.61;100.00;98866.19;2053691;84;21040;-90
2022/06/29 10:05:00;;;;;;;20.27;18.60;;;;;;;26.72;100.00;98853.48;2056757;85;21202;-89
2022/06/29 10:08:01;;;;;;;17.67;16.25;;;;;;;26.81;100.00;98853.94;2049735;86;21118;-90
2022/06/29 10:13:39;;;;;;;18.30;16.57;;;;;;;26.81;100.00;98851.25;2049996;84;21115;-90
2022/06/29 10:14:04;;;;;;;17.25;15.70;;;;;;;27.03;100.00;98848.66;2053025;85;21060;-90
2022/06/29 10:17:05;;;;;;;15.72;14.43;;;;;;;27.03;100.00;98857.51;2052232;85;21027;-90
2022/06/29 10:20:06;;;;;;;18.27;16.75;;;;;;;26.97;100.00;98855.11;2060671;84;21018;-90
2022/06/29 10:23:06;;;;;;;17.52;15.95;;;;;;;27.00;100.00;98859.94;2054093;84;21542;-89
2022/06/29 10:26:07;;;;;;;17.10;15.58;;;;;;;27.05;100.00;98853.19;2053947;85;21038;-91
2022/06/29 10:29:08;;;;;;;16.17;14.87;;;;;;;27.13;100.00;98851.23;2055188;85;21089;-90
2022/06/29 10:32:09;;;;;;;17.17;15.68;;;;;;;27.28;100.00;98852.97;2061622;84;21511;-91
2022/06/29 10:35:10;;;;;;;16.48;15.18;;;;;;;27.45;100.00;98847.95;2052670;84;21075;-90
2022/06/29 10:38:11;;;;;;;17.23;15.80;;;;;;;27.40;100.00;98851.48;2049005;84;21101;-90
2022/06/29 10:43:07;;;;;;;16.73;15.32;;;;;;;27.47;100.00;98849.25;2064837;84;21603;-91
2022/06/29 10:44:14;;;;;;;16.95;15.55;;;;;;;27.47;100.00;98845.22;2052215;84;21130;-90
2022/06/29 10:47:15;;;;;;;17.17;15.63;;;;;;;27.59;100.00;98841.31;2055224;85;21477;-91
2022/06/29 10:53:16;;;;;;;15.38;13.98;;;;;;;28.19;100.00;98853.74;2076445;84;21057;-90
2022/06/29 10:56:17;;;;;;;15.28;13.98;;;;;;;28.45;100.00;98856.34;2069066;84;21099;-90
2022/06/29 10:59:17;;;;;;;17.92;16.32;;;;;;;28.68;100.00;98856.51;2056692;84;21005;-90
2022/06/29 11:02:19;;;;;;;18.32;16.62;;;;;;;28.73;100.00;98857.78;2057184;84;21560;-92
2022/06/29 11:05:19;;;;;;;18.52;17.12;;;;;;;28.61;100.00;98860.37;2037088;85;21106;-91
2022/06/29 11:18:17;;;;;;;16.25;15.05;;;;;;;28.65;100.00;98836.36;2053642;84;21017;-89
2022/06/29 11:21:18;;;;;;;16.75;15.35;;;;;;;28.92;100.00;98832.16;2054781;84;21031;-91
2022/06/29 11:24:19;;;;;;;16.90;15.50;;;;;;;28.97;100.00;98831.50;2031275;85;21065;-93
2022/06/29 11:27:19;;;;;;;15.65;14.38;;;;;;;29.03;100.00;98829.53;2051726;85;21112;-92
2022/06/29 11:30:21;;;;;;;15.23;14.05;;;;;;;28.95;100.00;98832.36;2051643;86;21539;-92
2022/06/29 11:33:21;;;;;;;13.85;12.85;;;;;;;28.84;100.00;98829.02;2055740;85;21548;-92
2022/06/29 11:36:22;;;;;;;13.85;12.58;;;;;;;28.69;100.00;98827.92;2058509;84;21075;-91
2022/06/29 11:39:23;;;;;;;14.93;13.65;;;;;;;28.54;100.00;98824.16;2057312;85;21595;-92
2022/06/29 11:45:45;;;;;;;14.40;13.30;;;;;;;28.45;100.00;98811.11;2063897;83;21096;-91
2022/06/29 11:49:33;;;;;;;13.62;12.70;;;;;;;28.60;100.00;98800.86;2069186;84;21609;-89
2022/06/29 11:51:49;;;;;;;14.70;13.58;;;;;;;28.79;100.00;98808.89;2049387;84;21105;-89
2022/06/29 11:54:52;;;;;;;15.58;14.05;;;;;;;28.94;100.00;98809.20;2036106;83;21121;-89
2022/06/29 11:57:52;;;;;;;14.65;13.53;;;;;;;28.94;100.00;98805.16;2081552;84;21136;-91
2022/06/29 12:00:53;;;;;;;14.80;13.30;;;;;;;28.83;100.00;98806.42;2084960;83;21022;-90
2022/06/29 12:03:54;;;;;;;14.43;13.32;;;;;;;28.80;100.00;98801.60;2032587;84;21054;-90
2022/06/29 12:06:55;;;;;;;13.78;12.70;;;;;;;28.81;100.00;98795.14;2068212;83;21073;-90
2022/06/29 12:09:55;;;;;;;14.25;13.15;;;;;;;28.91;100.00;98789.60;2063069;84;20987;-91
2022/06/29 12:12:56;;;;;;;13.13;12.13;;;;;;;29.01;100.00;98779.97;2074908;84;21608;-93
2022/06/29 12:15:57;;;;;;;14.33;13.25;;;;;;;29.03;100.00;98787.20;2068341;84;21524;-89
2022/06/29 12:18:57;;;;;;;14.33;13.13;;;;;;;28.94;100.00;98781.46;2040906;85;21088;-89
2022/06/29 12:21:58;;;;;;;13.93;12.55;;;;;;;28.94;100.00;98782.26;2024314;86;21638;-91
2022/06/29 12:24:59;;;;;;;14.55;13.32;;;;;;;29.05;100.00;98778.81;2050692;85;21372;-90
2022/06/29 12:27:59;;;;;;;15.25;13.88;;;;;;;29.17;100.00;98781.28;2053767;85;21018;-91
2022/06/29 12:31:00;;;;;;;15.15;13.60;;;;;;;29.18;100.00;98780.73;2053835;84;21056;-90
2022/06/29 12:34:01;;;;;;;14.45;13.25;;;;;;;29.01;100.00;98772.44;2054266;86;21057;-89
2022/06/29 12:37:03;;;;;;;14.40;13.05;;;;;;;28.94;100.00;98780.11;2058473;85;21026;-90
2022/06/29 12:40:04;;;;;;;13.90;12.90;;;;;;;29.04;100.00;98763.75;2047516;84;21041;-90
2022/06/29 12:43:04;;;;;;;14.95;13.75;;;;;;;29.20;100.00;98760.21;2057038;85;21064;-91
2022/06/29 12:46:07;;;;;;;15.83;14.63;;;;;;;29.27;100.00;98753.88;2056321;84;20997;-90
2022/06/29 12:49:07;;;;;;;15.78;14.50;;;;;;;29.30;100.00;98747.31;2056188;85;21087;-88
2022/06/29 12:52:08;;;;;;;15.40;14.13;;;;;;;29.35;100.00;98743.17;2074998;84;21128;-88
2022/06/29 12:55:09;;;;;;;16.57;15.28;;;;;;;29.32;100.00;98743.77;2044203;85;21022;-86
2022/06/29 12:58:10;;;;;;;15.35;13.95;;;;;;;29.23;100.00;98739.38;2050286;85;21073;-87
2022/06/29 13:01:10;;;;;;;14.80;13.53;;;;;;;29.18;100.00;98738.95;2065017;83;21068;-85
2022/06/29 13:04:11;;;;;;;15.60;14.40;;;;;;;29.18;100.00;98744.34;2057619;84;20982;-90
2022/06/29 13:07:12;;;;;;;14.50;13.35;;;;;;;29.14;100.00;98734.69;2057153;84;21402;-92
2022/06/29 13:10:13;;;;;;;15.08;13.90;;;;;;;29.12;100.00;98734.75;2054680;85;21183;-91
2022/06/29 13:13:13;;;;;;;14.95;13.60;;;;;;;29.13;100.00;98735.00;2049533;84;21007;-89
2022/06/29 13:16:15;;;;;;;15.70;14.40;;;;;;;29.17;100.00;98735.45;2050238;85;21081;-90
2022/06/29 13:19:16;;;;;;;14.20;13.20;;;;;;;29.23;100.00;98730.73;2058857;85;21125;-89
2022/06/29 13:22:24;;;;;;;16.45;15.05;;;;;;;29.29;100.00;98733.59;2060856;85;21049;-93
2022/06/29 13:25:19;;;;;;;14.30;13.20;;;;;;;29.44;100.00;98734.63;2046194;85;21113;-92
2022/06/29 13:28:20;;;;;;;15.63;14.30;;;;;;;29.59;100.00;98730.01;2047016;84;21469;-91
2022/06/29 13:31:20;;;;;;;14.40;13.30;;;;;;;29.59;100.00;98729.45;2057848;85;21133;-93
2022/06/29 13:34:21;;;;;;;14.47;13.32;;;;;;;29.70;100.00;98740.81;2053916;85;21066;-89
2022/06/29 13:37:22;;;;;;;15.45;14.35;;;;;;;29.77;100.00;98744.45;2054533;85;22235;-89
2022/06/29 13:40:22;;;;;;;15.28;14.10;;;;;;;29.63;100.00;98740.45;2055459;85;21041;-85
2022/06/29 13:43:23;;;;;;;14.40;13.32;;;;;;;29.45;100.00;98736.77;2059023;85;21040;-86
2022/06/29 13:46:24;;;;;;;14.55;13.50;;;;;;;29.42;100.00;98738.70;2052231;85;21125;-88
2022/06/29 13:49:25;;;;;;;15.65;14.33;;;;;;;29.53;100.00;98734.70;2056056;84;21013;-85
2022/06/29 13:52:25;;;;;;;14.07;12.98;;;;;;;29.63;100.00;98729.11;2051961;85;21071;-84
2022/06/29 13:55:26;;;;;;;14.33;13.00;;;;;;;29.74;100.00;98737.22;2055196;85;21127;-87
2022/06/29 13:58:27;;;;;;;13.95;12.75;;;;;;;29.86;100.00;98740.72;2047273;85;21584;-87
2022/06/29 14:01:27;;;;;;;14.53;13.38;;;;;;;29.91;100.00;98736.56;2035663;85;21074;-88
2022/06/29 14:04:28;;;;;;;15.48;13.45;;;;;;;29.94;100.00;98738.64;2047409;85;21064;-86